Time;durP1;ratioP1;P1;durP2;ratioP2;P2;SDS_P1;SDS_P2;PMS_P1;PMS_P2;Temp;Humidity;BMP_temperature;BMP_pressure;BME280_temperature;BME280_humidity;BME280_pressure;Samples;Min_cycle;Max_cycle;Signal;HPM_P1;HPM_P2
2021/07/04 00:02:10;;;;;;;8.05;5.90;;;;;;;11.91;96.35;101035.94;4998694;28;20030;-76
2021/07/04 00:04:36;;;;;;;9.75;7.05;;;;;;;11.92;96.84;101043.06;5012982;28;20030;-76
2021/07/04 00:07:01;;;;;;;9.23;5.95;;;;;;;11.90;97.00;101042.28;5014299;28;20069;-76
2021/07/04 00:09:26;;;;;;;8.50;5.90;;;;;;;11.94;96.84;101041.16;5006399;28;20089;-76
2021/07/04 00:11:52;;;;;;;10.63;6.07;;;;;;;11.90;95.89;101036.03;4998146;28;20132;-76
2021/07/04 00:14:18;;;;;;;10.00;6.70;;;;;;;11.92;96.03;101039.50;5015076;28;20079;-77
2021/07/04 00:16:43;;;;;;;10.73;6.63;;;;;;;11.89;96.68;101037.00;5014653;28;20080;-77
2021/07/04 00:19:09;;;;;;;11.70;6.20;;;;;;;11.89;96.55;101037.88;5022673;28;20034;-76
2021/07/04 00:21:35;;;;;;;9.93;6.15;;;;;;;11.90;96.40;101049.50;4998377;28;20050;-76
2021/07/04 00:24:00;;;;;;;9.88;6.55;;;;;;;11.90;97.29;101050.34;4982810;28;20026;-76
2021/07/04 00:26:26;;;;;;;11.55;6.03;;;;;;;11.86;97.16;101043.41;5005211;28;20413;-77
2021/07/04 00:28:52;;;;;;;9.60;6.80;;;;;;;11.89;97.80;101039.69;4997591;28;20032;-77
2021/07/04 00:31:17;;;;;;;9.18;6.75;;;;;;;11.89;97.39;101045.09;5014776;28;20021;-77
2021/07/04 00:33:42;;;;;;;14.27;7.53;;;;;;;11.82;97.87;101028.38;5014657;28;20061;-76
2021/07/04 00:36:08;;;;;;;10.70;7.35;;;;;;;11.79;98.29;101021.34;4998326;28;20033;-76
2021/07/04 00:38:35;;;;;;;8.10;6.03;;;;;;;11.89;97.68;101027.09;4998431;28;20125;-76
2021/07/04 00:41:00;;;;;;;9.30;6.65;;;;;;;11.89;97.26;101032.47;5014472;28;20037;-76
2021/07/04 00:43:26;;;;;;;10.95;6.15;;;;;;;11.85;97.55;101030.88;4998328;28;20034;-77
2021/07/04 00:45:51;;;;;;;9.35;6.82;;;;;;;11.80;97.61;101022.22;4997528;28;20030;-76
2021/07/04 00:48:17;;;;;;;8.95;6.22;;;;;;;11.78;97.69;101021.44;4997851;28;20044;-76
2021/07/04 00:50:43;;;;;;;9.93;7.05;;;;;;;11.78;97.67;101018.75;4979122;28;20030;-76
2021/07/04 00:53:08;;;;;;;12.45;6.78;;;;;;;11.79;97.95;101020.50;4985930;28;20053;-76
2021/07/04 00:55:34;;;;;;;9.77;7.07;;;;;;;11.79;98.57;101029.44;5014183;28;20385;-76
2021/07/04 00:57:59;;;;;;;9.45;6.90;;;;;;;11.76;98.33;101021.53;5014048;28;20453;-75
2021/07/04 01:00:28;;;;;;;12.73;7.65;;;;;;;11.79;97.41;101031.28;5017347;28;20063;-76
2021/07/04 01:02:53;;;;;;;11.35;7.60;;;;;;;11.73;98.35;101013.63;5034061;28;20022;-76
2021/07/04 01:05:24;;;;;;;9.65;7.15;;;;;;;11.75;98.34;101016.25;5001742;28;20369;-75
2021/07/04 01:07:50;;;;;;;9.07;6.85;;;;;;;11.69;98.04;101003.13;5030596;28;20121;-76
2021/07/04 01:10:21;;;;;;;10.00;6.78;;;;;;;11.71;97.91;101022.75;5005245;28;20112;-76
2021/07/04 01:12:49;;;;;;;12.45;6.47;;;;;;;11.72;97.62;101024.47;4978142;28;20385;-76
2021/07/04 01:15:17;;;;;;;10.60;6.90;;;;;;;11.73;97.60;101018.16;4978011;28;20030;-76
2021/07/04 01:17:44;;;;;;;9.73;6.68;;;;;;;11.69;97.56;101012.06;4994207;28;20099;-76
2021/07/04 01:20:11;;;;;;;9.68;6.32;;;;;;;11.74;98.31;101014.50;4980723;28;20037;-76
2021/07/04 01:22:38;;;;;;;9.45;6.63;;;;;;;11.76;97.86;101015.28;5012689;28;20022;-75
2021/07/04 01:25:04;;;;;;;;;;;;;;;11.72;97.58;101019.09;4994527;28;20022;-76
2021/07/04 01:27:29;;;;;;;10.02;6.72;;;;;;;11.70;98.29;101021.03;5004308;28;20423;-76
2021/07/04 01:29:54;;;;;;;10.20;6.68;;;;;;;11.61;98.65;101005.44;4977738;28;20044;-76
2021/07/04 01:32:20;;;;;;;10.07;6.85;;;;;;;11.65;98.45;101009.66;4977669;28;20380;-76
2021/07/04 01:34:45;;;;;;;10.75;6.88;;;;;;;11.65;98.05;101006.97;4995079;28;20018;-76
2021/07/04 01:37:10;;;;;;;9.95;7.03;;;;;;;11.66;97.97;101011.41;4994127;28;20439;-75
2021/07/04 01:39:36;;;;;;;11.00;7.40;;;;;;;11.54;98.66;101000.41;5000474;28;20056;-75
2021/07/04 01:42:01;;;;;;;12.73;7.68;;;;;;;11.55;99.38;101003.94;4996641;28;20393;-75
2021/07/04 01:44:26;;;;;;;12.43;7.95;;;;;;;11.54;98.28;100999.53;4997001;28;20441;-76
2021/07/04 01:46:52;;;;;;;12.13;7.60;;;;;;;11.55;98.35;100994.03;4996668;28;20053;-75
2021/07/04 01:49:17;;;;;;;9.18;6.70;;;;;;;11.53;99.00;100989.72;4996909;28;20092;-75
2021/07/04 01:51:43;;;;;;;11.27;7.55;;;;;;;11.52;99.10;100996.06;4996901;28;20058;-76
2021/07/04 01:54:08;;;;;;;9.85;6.93;;;;;;;11.57;98.89;101004.72;5012924;28;20061;-75
2021/07/04 01:56:35;;;;;;;12.10;7.68;;;;;;;11.49;98.72;100989.03;5013642;28;20022;-75
2021/07/04 01:59:00;;;;;;;12.60;7.65;;;;;;;11.48;99.19;100989.13;5013209;28;20037;-75
2021/07/04 02:01:25;;;;;;;11.18;8.50;;;;;;;11.50;99.45;100988.06;5001030;28;20457;-75
2021/07/04 02:03:51;;;;;;;13.85;8.70;;;;;;;11.43;99.62;100978.63;4998932;28;20539;-75
2021/07/04 02:06:16;;;;;;;11.63;8.10;;;;;;;11.47;99.11;100985.56;4996449;28;20036;-75
2021/07/04 02:08:42;;;;;;;11.18;7.20;;;;;;;11.48;99.59;100998.06;5013093;28;20483;-76
2021/07/04 02:11:07;;;;;;;12.23;8.13;;;;;;;11.46;99.66;100986.50;4996521;28;20061;-76
2021/07/04 02:13:33;;;;;;;12.05;7.90;;;;;;;11.48;99.15;100979.22;4996334;28;20034;-76
2021/07/04 02:15:58;;;;;;;11.85;8.23;;;;;;;11.45;99.41;100989.31;5012887;28;20108;-76
2021/07/04 02:18:23;;;;;;;11.48;8.43;;;;;;;11.48;99.44;100989.97;5012722;28;20100;-75
2021/07/04 02:20:50;;;;;;;13.23;9.07;;;;;;;11.48;99.96;100995.38;4983311;28;20042;-76
2021/07/04 02:23:27;;;;;;;12.90;9.15;;;;;;;11.48;99.57;100984.59;5009674;28;20037;-75
2021/07/04 02:25:54;;;;;;;13.63;9.90;;;;;;;11.50;99.70;100995.28;4978127;28;20121;-75
2021/07/04 02:28:22;;;;;;;16.77;10.13;;;;;;;11.46;99.98;100996.41;5012593;28;20870;-76
2021/07/04 02:30:49;;;;;;;14.65;10.15;;;;;;;11.44;99.85;100992.94;5012369;28;20044;-75
2021/07/04 02:33:16;;;;;;;12.38;8.93;;;;;;;11.37;100.00;100990.63;4995516;28;20116;-75
2021/07/04 02:35:48;;;;;;;17.67;11.02;;;;;;;11.36;100.00;100990.69;4993235;28;20030;-76
2021/07/04 02:38:13;;;;;;;14.93;11.13;;;;;;;11.38;100.00;100991.47;4992990;28;20125;-75
2021/07/04 02:40:39;;;;;;;15.23;10.32;;;;;;;11.38;100.00;100995.03;4977467;28;20062;-75
2021/07/04 02:43:06;;;;;;;14.45;10.18;;;;;;;11.31;100.00;100988.28;5012232;28;20026;-76
2021/07/04 02:45:31;;;;;;;;;;;;;;;11.34;100.00;100998.00;5012307;28;20025;-77
2021/07/04 02:47:57;;;;;;;16.13;9.90;;;;;;;11.34;100.00;100992.63;4985318;28;19920;-78
2021/07/04 02:50:23;;;;;;;16.95;11.13;;;;;;;11.33;100.00;100990.88;4992878;28;20062;-77
2021/07/04 02:52:52;;;;;;;18.50;11.98;;;;;;;11.33;100.00;100993.56;5001109;28;20025;-75
2021/07/04 02:55:19;;;;;;;14.02;9.95;;;;;;;11.34;100.00;100993.47;4998381;28;20057;-76
2021/07/04 02:57:45;;;;;;;15.48;9.93;;;;;;;11.34;100.00;100992.63;5005663;28;20100;-75
2021/07/04 03:00:12;;;;;;;12.45;9.55;;;;;;;11.43;100.00;101008.22;5002520;28;20422;-76
2021/07/04 03:02:38;;;;;;;15.20;10.05;;;;;;;11.40;100.00;101003.03;5002482;28;20034;-76
2021/07/04 03:05:05;;;;;;;13.02;9.38;;;;;;;11.39;100.00;100995.91;4998578;28;20132;-76
2021/07/04 03:07:30;;;;;;;12.13;8.82;;;;;;;11.42;100.00;100998.44;5018657;28;20022;-75
2021/07/04 03:09:55;;;;;;;16.00;9.57;;;;;;;11.40;100.00;100989.56;4996881;28;20026;-75
2021/07/04 03:12:21;;;;;;;12.48;8.77;;;;;;;11.38;100.00;100991.47;5018172;28;20034;-76
2021/07/04 03:14:46;;;;;;;13.48;9.90;;;;;;;11.40;100.00;100992.28;5018694;28;20026;-75
2021/07/04 03:17:11;;;;;;;15.93;10.48;;;;;;;11.41;100.00;100993.13;4996192;28;20029;-76
2021/07/04 03:19:37;;;;;;;14.18;10.55;;;;;;;11.45;100.00;100997.38;4999409;28;20421;-76
2021/07/04 03:22:02;;;;;;;16.27;11.63;;;;;;;11.43;100.00;100989.38;4986057;28;20026;-76
2021/07/04 03:24:28;;;;;;;13.90;9.63;;;;;;;11.50;100.00;100989.91;4996308;28;20120;-76
2021/07/04 03:26:53;;;;;;;12.45;8.70;;;;;;;11.52;100.00;100985.31;5038148;28;20022;-76
2021/07/04 03:29:18;;;;;;;11.90;9.68;;;;;;;11.52;100.00;100982.59;4994470;28;20029;-75
2021/07/04 03:31:44;;;;;;;15.25;9.15;;;;;;;11.61;100.00;100984.75;5038421;28;20033;-76
2021/07/04 03:34:09;;;;;;;11.90;8.88;;;;;;;11.67;100.00;100983.53;5021635;28;20026;-76
2021/07/04 03:36:35;;;;;;;11.18;8.27;;;;;;;11.70;99.71;100983.34;5021537;28;20369;-76
2021/07/04 03:39:00;;;;;;;11.88;8.50;;;;;;;11.76;99.32;100989.22;5005341;28;20483;-76
2021/07/04 03:41:25;;;;;;;14.35;9.15;;;;;;;11.84;99.32;100991.47;5005203;28;20060;-76
2021/07/04 03:43:51;;;;;;;12.52;8.85;;;;;;;11.87;99.54;100979.66;5038184;28;20029;-76
2021/07/04 03:46:16;;;;;;;11.93;9.27;;;;;;;11.87;99.77;100980.53;5039455;28;20021;-76
2021/07/04 03:48:41;;;;;;;19.38;10.15;;;;;;;11.91;99.90;100976.72;5038144;28;20116;-75
2021/07/04 03:51:07;;;;;;;16.95;9.70;;;;;;;11.99;100.00;100985.19;5021795;28;20104;-75
2021/07/04 03:53:32;;;;;;;14.77;9.57;;;;;;;12.00;99.06;100981.53;5021875;28;20072;-76
2021/07/04 03:55:57;;;;;;;12.05;8.50;;;;;;;12.05;99.01;100986.66;5039254;28;20037;-76
2021/07/04 03:58:23;;;;;;;12.88;8.95;;;;;;;12.06;99.78;100976.75;5021376;28;20025;-76
2021/07/04 04:00:48;;;;;;;10.65;8.38;;;;;;;12.18;98.97;100995.72;5021535;28;20021;-75
2021/07/04 04:03:13;;;;;;;13.38;9.20;;;;;;;12.18;98.88;100986.75;5002479;28;20049;-76
2021/07/04 04:05:39;;;;;;;12.02;9.25;;;;;;;12.23;98.94;100986.47;5018353;28;20122;-76
2021/07/04 04:08:06;;;;;;;12.75;10.05;;;;;;;12.32;98.79;100989.50;5034735;28;20072;-76
2021/07/04 04:10:32;;;;;;;14.95;10.80;;;;;;;12.46;99.00;100990.44;5002370;28;20048;-76
2021/07/04 04:12:58;;;;;;;15.57;9.35;;;;;;;12.52;98.99;100990.06;5001815;28;20017;-76
2021/07/04 04:15:23;;;;;;;13.43;10.05;;;;;;;12.61;98.65;100998.44;5018255;28;20025;-76
2021/07/04 04:17:49;;;;;;;12.20;8.93;;;;;;;12.69;98.82;101000.63;5034368;28;20050;-75
2021/07/04 04:20:14;;;;;;;15.40;9.32;;;;;;;12.80;98.64;100998.13;5031269;28;20045;-76
2021/07/04 04:22:39;;;;;;;13.27;9.45;;;;;;;12.87;98.45;100986.97;4998068;28;20041;-75
2021/07/04 04:25:05;;;;;;;13.27;8.63;;;;;;;13.00;98.29;100994.16;4999589;28;20497;-76
2021/07/04 04:27:30;;;;;;;12.93;10.15;;;;;;;13.11;98.23;100992.59;4998362;28;20022;-75
2021/07/04 04:29:56;;;;;;;13.73;10.05;;;;;;;13.25;97.39;100988.03;5014717;28;20033;-76
2021/07/04 04:32:21;;;;;;;14.45;9.65;;;;;;;13.45;97.40;100991.28;4998436;28;20030;-76
2021/07/04 04:34:47;;;;;;;15.98;10.18;;;;;;;13.60;96.30;100982.16;5014592;28;20449;-76
2021/07/04 04:37:12;;;;;;;11.45;8.70;;;;;;;13.81;96.01;100989.78;5014617;28;20034;-75
2021/07/04 04:39:37;;;;;;;14.30;9.30;;;;;;;14.01;96.05;100991.09;5014515;28;20026;-76
2021/07/04 04:42:03;;;;;;;15.50;8.98;;;;;;;14.17;95.90;100990.91;5014493;28;20071;-76
2021/07/04 04:44:28;;;;;;;14.18;9.63;;;;;;;14.25;94.57;100984.00;4998167;28;20022;-76
2021/07/04 04:46:53;;;;;;;14.27;9.75;;;;;;;14.42;94.49;100981.94;5005022;28;20484;-76
2021/07/04 04:49:19;;;;;;;14.52;10.23;;;;;;;14.60;94.45;100991.47;4994849;28;20037;-76
2021/07/04 04:51:44;;;;;;;13.85;10.43;;;;;;;14.84;94.32;100990.69;4994622;28;20023;-77
2021/07/04 04:54:10;;;;;;;12.02;9.35;;;;;;;14.99;93.53;100988.69;4994904;28;20026;-76
2021/07/04 04:56:35;;;;;;;16.80;10.02;;;;;;;15.13;93.49;100981.31;4993195;28;20030;-76
2021/07/04 04:59:01;;;;;;;13.35;9.10;;;;;;;15.28;92.83;100979.28;4978170;28;20039;-76
2021/07/04 05:01:28;;;;;;;11.50;8.07;;;;;;;15.48;91.74;100980.53;4995455;28;20023;-76
2021/07/04 05:03:53;;;;;;;;;;;;;;;15.70;91.61;100981.59;4998338;28;20022;-77
2021/07/04 05:06:19;;;;;;;10.63;7.10;;;;;;;15.78;90.65;100965.63;5005573;28;20280;-76
2021/07/04 05:08:44;;;;;;;9.63;7.18;;;;;;;15.92;88.12;100967.28;4980620;28;20081;-76
2021/07/04 05:11:11;;;;;;;9.77;6.22;;;;;;;16.08;87.05;100970.56;4997639;28;20519;-76
2021/07/04 05:13:37;;;;;;;10.27;6.75;;;;;;;16.32;88.44;100977.75;4997683;28;20109;-77
2021/07/04 05:16:03;;;;;;;14.38;7.00;;;;;;;16.42;87.34;100957.03;4995017;28;20033;-76
2021/07/04 05:18:29;;;;;;;9.15;5.30;;;;;;;16.60;84.02;100973.69;4994071;28;20035;-76
2021/07/04 05:20:54;;;;;;;8.40;5.45;;;;;;;16.71;82.41;100962.84;4977945;28;20050;-76
2021/07/04 05:23:19;;;;;;;8.80;5.60;;;;;;;16.95;83.22;100973.56;4986577;28;20405;-76
2021/07/04 05:25:45;;;;;;;10.00;5.30;;;;;;;17.29;79.28;100970.81;5013554;28;20488;-77
2021/07/04 05:28:10;;;;;;;8.18;5.47;;;;;;;17.31;80.68;100963.38;5010688;28;20021;-76
2021/07/04 05:30:35;;;;;;;9.35;5.72;;;;;;;17.50;80.01;100967.25;4977635;28;20026;-76
2021/07/04 05:33:01;;;;;;;11.50;6.35;;;;;;;17.56;81.90;100956.75;4981888;28;20034;-77
2021/07/04 05:35:27;;;;;;;8.93;5.20;;;;;;;17.79;81.63;100964.81;5012356;28;20029;-76
2021/07/04 05:37:52;;;;;;;8.00;5.97;;;;;;;17.87;80.68;100957.75;4993662;28;20038;-76
2021/07/04 05:40:18;;;;;;;10.85;6.43;;;;;;;18.11;78.64;100959.34;4977526;28;20030;-76
2021/07/04 05:42:44;;;;;;;9.15;5.68;;;;;;;18.48;79.09;100964.28;4996349;28;20026;-76
2021/07/04 05:45:15;;;;;;;8.75;5.60;;;;;;;18.63;77.53;100960.19;5013426;28;20025;-76
2021/07/04 05:47:40;;;;;;;10.50;6.30;;;;;;;18.97;74.34;100961.78;5013192;28;20026;-77
2021/07/04 05:50:06;;;;;;;11.25;6.10;;;;;;;19.31;72.67;100957.72;4999953;28;20030;-77
2021/07/04 05:52:32;;;;;;;8.63;5.43;;;;;;;19.66;71.40;100961.75;5010154;28;20488;-76
2021/07/04 05:54:57;;;;;;;8.75;5.88;;;;;;;20.38;68.81;100960.38;4993569;28;20429;-76
2021/07/04 05:57:22;;;;;;;7.78;4.88;;;;;;;21.16;65.34;100949.13;4998439;28;20029;-76
2021/07/04 05:59:48;;;;;;;8.80;4.73;;;;;;;22.10;60.22;100952.44;5014200;28;20057;-77
2021/07/04 06:02:13;;;;;;;11.30;4.80;;;;;;;22.10;59.20;100946.97;5011504;28;20044;-76
2021/07/04 06:04:39;;;;;;;10.03;5.40;;;;;;;21.98;59.40;100957.31;5032872;28;20044;-77
2021/07/04 06:07:05;;;;;;;7.73;5.27;;;;;;;21.93;58.67;100963.25;5032762;28;20029;-77
2021/07/04 06:09:30;;;;;;;7.70;4.60;;;;;;;22.08;58.76;100944.38;5032895;28;20432;-77
2021/07/04 06:11:56;;;;;;;7.10;4.30;;;;;;;21.95;60.53;100952.13;5015570;28;20053;-77
2021/07/04 06:14:21;;;;;;;8.67;5.00;;;;;;;22.02;57.24;100945.00;5012922;28;20084;-76
2021/07/04 06:16:46;;;;;;;7.50;4.55;;;;;;;22.27;54.89;100944.19;4998075;28;20038;-76
2021/07/04 06:19:12;;;;;;;11.30;5.17;;;;;;;22.15;54.52;100953.66;5005987;28;20038;-76
2021/07/04 06:21:37;;;;;;;8.77;4.72;;;;;;;22.06;55.99;100943.66;5019929;28;20046;-77
2021/07/04 06:24:03;;;;;;;8.30;4.97;;;;;;;22.17;55.78;100950.75;5015945;28;20571;-77
2021/07/04 06:26:28;;;;;;;9.50;3.92;;;;;;;22.30;57.14;100947.63;5015488;28;20416;-77
2021/07/04 06:28:53;;;;;;;8.30;4.45;;;;;;;22.73;54.05;100946.66;4999565;28;20041;-77
2021/07/04 06:31:19;;;;;;;6.80;4.30;;;;;;;23.65;49.33;100946.75;5016062;28;20120;-77
2021/07/04 06:33:46;;;;;;;8.73;4.20;;;;;;;24.21;49.11;100936.00;4988587;28;20030;-76
2021/07/04 06:36:12;;;;;;;6.03;3.88;;;;;;;25.09;47.46;100926.78;5015850;28;20075;-76
2021/07/04 06:38:37;;;;;;;6.77;4.00;;;;;;;26.74;41.42;100932.66;4999018;28;20461;-77
2021/07/04 06:41:02;;;;;;;5.70;3.30;;;;;;;27.19;39.82;100936.16;4999249;28;20033;-76
2021/07/04 06:43:28;;;;;;;8.23;3.93;;;;;;;27.83;38.73;100938.16;5012491;28;20497;-76
2021/07/04 06:45:53;;;;;;;6.07;2.97;;;;;;;28.42;37.58;100936.94;5012715;28;20026;-76
2021/07/04 06:48:19;;;;;;;6.73;3.50;;;;;;;28.97;36.02;100928.75;4995965;28;20032;-77
2021/07/04 06:50:44;;;;;;;4.50;2.90;;;;;;;29.09;36.60;100936.28;5012660;28;20029;-77
2021/07/04 06:53:10;;;;;;;5.67;3.17;;;;;;;30.03;32.42;100919.84;5012575;28;20033;-77
2021/07/04 06:55:35;;;;;;;4.90;2.90;;;;;;;30.62;32.42;100933.66;5012722;28;20033;-77
2021/07/04 06:58:00;;;;;;;5.10;3.20;;;;;;;30.87;31.25;100927.44;4996066;28;20033;-77
2021/07/04 07:00:27;;;;;;;5.13;2.83;;;;;;;31.20;30.90;100926.41;5012498;28;20161;-77
2021/07/04 07:02:52;;;;;;;;;;;;;;;31.34;29.93;100936.38;5012940;28;20488;-77
2021/07/04 07:05:19;;;;;;;5.80;2.88;;;;;;;32.43;27.84;100914.81;5012543;28;19914;-77
2021/07/04 07:07:44;;;;;;;4.20;2.60;;;;;;;32.29;29.22;100914.09;4996150;28;20030;-77
2021/07/04 07:10:12;;;;;;;5.83;2.90;;;;;;;32.51;29.14;100921.19;5012354;28;20431;-77
2021/07/04 07:12:38;;;;;;;5.25;2.53;;;;;;;32.93;27.69;100913.81;5012363;28;20022;-77
2021/07/04 07:15:06;;;;;;;6.78;3.03;;;;;;;33.02;27.19;100917.97;4996228;28;20148;-77
2021/07/04 07:17:31;;;;;;;4.85;2.78;;;;;;;33.50;26.17;100910.72;5012150;28;20026;-77
2021/07/04 07:19:57;;;;;;;7.67;2.90;;;;;;;33.29;25.61;100912.94;5013277;28;20038;-77
2021/07/04 07:22:22;;;;;;;5.07;2.70;;;;;;;33.45;26.18;100916.16;5012313;28;20080;-77
2021/07/04 07:24:48;;;;;;;5.77;3.30;;;;;;;34.69;24.11;100915.34;5012274;28;20026;-77
2021/07/04 07:27:14;;;;;;;4.65;2.58;;;;;;;34.41;25.86;100908.56;5012278;28;20026;-77
2021/07/04 07:29:39;;;;;;;4.80;2.70;;;;;;;36.15;22.97;100917.59;5012328;28;20033;-77
2021/07/04 07:32:05;;;;;;;3.70;2.50;;;;;;;35.07;24.43;100911.09;5012271;28;20057;-77
2021/07/04 07:34:30;;;;;;;5.28;3.45;;;;;;;35.75;23.04;100901.81;5013551;28;20037;-77
2021/07/04 07:36:56;;;;;;;4.67;2.63;;;;;;;35.51;23.41;100901.09;5011910;28;20381;-77
2021/07/04 07:39:22;;;;;;;6.03;2.77;;;;;;;35.54;22.52;100916.50;5001542;28;20065;-77
2021/07/04 07:41:47;;;;;;;3.55;2.53;;;;;;;35.54;23.60;100911.78;5019016;28;20744;-77
2021/07/04 07:44:13;;;;;;;6.73;3.17;;;;;;;35.49;22.47;100908.88;5019203;28;20033;-78
2021/07/04 07:46:39;;;;;;;3.75;2.53;;;;;;;36.07;22.06;100909.63;5018951;28;20108;-77
2021/07/04 07:49:06;;;;;;;5.05;2.45;;;;;;;36.42;22.86;100906.53;5018939;28;20034;-77
2021/07/04 07:51:31;;;;;;;4.88;2.60;;;;;;;36.19;23.15;100910.41;5019417;28;20022;-78
2021/07/04 07:53:56;;;;;;;4.57;2.83;;;;;;;36.92;21.12;100909.44;5019136;28;20029;-77
2021/07/04 07:56:22;;;;;;;5.07;2.85;;;;;;;37.76;20.30;100900.59;5002626;28;20022;-77
2021/07/04 07:58:48;;;;;;;3.77;2.40;;;;;;;37.35;21.25;100902.13;5018800;28;20029;-77
2021/07/04 08:01:15;;;;;;;3.78;2.50;;;;;;;38.19;20.51;100903.47;5002297;28;20040;-76
2021/07/04 08:03:40;;;;;;;6.13;3.15;;;;;;;37.82;20.57;100896.69;5036376;28;20507;-79
2021/07/04 08:06:05;;;;;;;6.40;2.90;;;;;;;38.07;20.47;100900.88;5036355;28;20049;-78
2021/07/04 08:08:31;;;;;;;7.47;2.67;;;;;;;36.80;22.28;100904.00;5036112;28;20064;-78
2021/07/04 08:10:56;;;;;;;5.87;3.77;;;;;;;35.85;24.06;100892.75;5018573;28;20056;-78
2021/07/04 08:13:21;;;;;;;5.43;2.90;;;;;;;35.59;24.20;100899.84;5013917;28;20770;-77
2021/07/04 08:15:47;;;;;;;6.60;3.43;;;;;;;33.91;25.01;100886.72;5031969;28;20488;-77
2021/07/04 08:18:12;;;;;;;4.93;3.10;;;;;;;34.33;26.77;100907.00;5034652;28;20519;-77
2021/07/04 08:20:37;;;;;;;5.97;3.33;;;;;;;34.28;25.07;100892.94;5033905;28;20052;-77
2021/07/04 08:23:04;;;;;;;;;;;;;;;35.47;23.72;100899.06;5034575;28;20049;-77
2021/07/04 08:25:30;;;;;;;5.57;3.27;;;;;;;36.11;23.09;100905.22;5018060;28;20008;-77
2021/07/04 08:27:55;;;;;;;6.15;2.83;;;;;;;36.37;23.14;100888.81;5017978;28;20472;-77
2021/07/04 08:30:21;;;;;;;7.27;3.80;;;;;;;36.02;22.03;100896.41;5034629;28;20033;-78
2021/07/04 08:32:47;;;;;;;5.50;3.35;;;;;;;36.92;21.49;100885.09;5018095;28;20021;-78
2021/07/04 08:35:13;;;;;;;6.23;3.13;;;;;;;38.11;20.57;100893.59;5035497;28;20034;-77
2021/07/04 08:37:38;;;;;;;6.97;3.65;;;;;;;38.43;20.20;100876.66;5017903;28;20035;-78
2021/07/04 08:40:07;;;;;;;5.53;3.57;;;;;;;39.23;18.51;100879.25;5017810;28;20026;-78
2021/07/04 08:42:32;;;;;;;5.78;3.40;;;;;;;38.82;19.34;100878.28;5018062;28;20036;-79
2021/07/04 08:45:01;;;;;;;;;;;;;;;41.65;17.22;100882.31;5001869;28;20025;-77
2021/07/04 08:47:26;;;;;;;5.10;3.03;;;;;;;41.19;16.61;100870.22;5017593;28;19917;-77
2021/07/04 08:49:53;;;;;;;5.43;3.45;;;;;;;39.85;17.52;100877.41;5032999;28;20026;-78
2021/07/04 08:52:19;;;;;;;5.45;3.70;;;;;;;39.07;18.11;100869.97;5001040;28;20469;-80
2021/07/04 08:54:44;;;;;;;;;;;;;;;38.45;19.16;100860.41;4998445;28;20080;-77
2021/07/04 08:57:10;;;;;;;6.10;3.50;;;;;;;39.41;17.87;100855.44;4997981;28;19967;-79
2021/07/04 08:59:41;;;;;;;5.78;3.35;;;;;;;40.21;17.89;100856.78;4997815;28;20117;-78
2021/07/04 09:02:10;;;;;;;5.00;3.25;;;;;;;38.84;19.38;100856.38;4997866;28;20041;-78
2021/07/04 09:04:36;;;;;;;4.90;3.10;;;;;;;38.77;19.91;100859.44;5015385;28;20022;-77
2021/07/04 09:07:01;;;;;;;;;;;;;;;39.59;18.30;100853.19;4998318;28;20105;-78
2021/07/04 09:09:28;;;;;;;7.80;3.67;;;;;;;39.63;17.97;100852.34;4981365;28;19987;-77
2021/07/04 09:12:08;;;;;;;6.45;3.53;;;;;;;38.73;18.91;100856.34;4981312;28;20026;-77
2021/07/04 09:14:35;;;;;;;8.48;4.00;;;;;;;38.95;18.80;100854.50;4997590;28;20373;-78
2021/07/04 09:17:02;;;;;;;7.65;3.45;;;;;;;39.17;18.85;100846.66;5003295;28;20089;-77
2021/07/04 09:19:27;;;;;;;6.25;3.47;;;;;;;38.91;19.58;100851.34;4997562;28;20053;-77
2021/07/04 09:22:00;;;;;;;;;;;;;;;37.52;21.54;100851.56;4985745;28;20085;-77
2021/07/04 09:24:47;;;;;;;5.13;3.67;;;;;;;38.38;19.27;100854.19;4997383;28;19917;-77
2021/07/04 09:27:13;;;;;;;;;;;;;;;38.74;17.87;100857.19;5014857;28;20069;-77
2021/07/04 09:29:46;;;;;;;7.77;3.97;;;;;;;38.12;19.31;100856.00;5002470;28;19916;-77
2021/07/04 09:32:13;;;;;;;8.43;4.90;;;;;;;37.26;19.50;100849.38;5033841;28;20060;-77
2021/07/04 09:34:39;;;;;;;6.05;3.83;;;;;;;36.96;20.90;100860.22;5016756;28;20022;-77
2021/07/04 09:37:05;;;;;;;6.82;4.18;;;;;;;38.32;20.20;100838.47;5033344;28;20048;-77
2021/07/04 09:39:30;;;;;;;8.07;3.92;;;;;;;37.08;20.56;100857.31;5016586;28;20503;-77
2021/07/04 09:42:07;;;;;;;6.30;4.68;;;;;;;33.73;24.23;100854.22;5031411;28;20098;-77
2021/07/04 09:44:34;;;;;;;5.97;3.95;;;;;;;31.45;28.83;100854.34;5016560;28;20460;-77
2021/07/04 09:47:15;;;;;;;7.40;4.50;;;;;;;30.72;28.82;100851.94;4999984;28;20366;-77
2021/07/04 09:49:41;;;;;;;8.95;4.80;;;;;;;30.07;31.41;100840.78;5012953;28;20095;-77
2021/07/04 09:52:22;;;;;;;7.30;5.03;;;;;;;29.14;32.28;100847.97;4998639;28;20093;-76
2021/07/04 09:55:14;;;;;;;7.65;5.05;;;;;;;28.92;31.72;100844.50;5013071;28;20499;-77
2021/07/04 09:58:03;;;;;;;7.40;4.70;;;;;;;28.22;33.52;100849.25;5022625;28;20155;-77
2021/07/04 10:00:30;;;;;;;7.63;4.93;;;;;;;27.99;34.15;100843.13;5035493;28;20087;-77
2021/07/04 10:03:13;;;;;;;8.75;5.10;;;;;;;27.79;34.68;100848.50;5035993;28;20074;-77
2021/07/04 10:05:40;;;;;;;9.07;5.50;;;;;;;27.65;36.59;100845.63;5019673;28;20075;-77
2021/07/04 10:08:18;;;;;;;9.27;5.10;;;;;;;27.35;35.92;100841.31;5012861;28;20473;-77
2021/07/04 10:10:44;;;;;;;11.57;5.72;;;;;;;27.40;36.54;100845.19;5034070;28;20037;-77
2021/07/04 10:13:09;;;;;;;10.23;5.43;;;;;;;27.71;36.27;100849.50;4990418;28;20476;-77
2021/07/04 10:15:35;;;;;;;8.33;4.83;;;;;;;28.10;34.89;100837.91;4991796;28;20532;-76
2021/07/04 10:18:00;;;;;;;6.73;4.53;;;;;;;28.06;36.14;100836.63;5015460;28;20453;-77
2021/07/04 10:20:26;;;;;;;7.90;4.87;;;;;;;28.53;33.67;100832.22;5015490;28;20144;-76
2021/07/04 10:22:51;;;;;;;9.47;5.30;;;;;;;28.14;36.51;100827.31;5036355;28;20017;-77
2021/07/04 10:25:17;;;;;;;7.87;4.33;;;;;;;28.25;36.60;100815.69;5035644;28;20103;-77
2021/07/04 10:27:42;;;;;;;8.10;5.60;;;;;;;27.84;35.70;100821.16;5027573;28;20030;-77
2021/07/04 10:30:08;;;;;;;8.27;5.13;;;;;;;28.07;35.70;100820.91;5032409;28;20030;-76
2021/07/04 10:32:33;;;;;;;11.27;5.93;;;;;;;27.86;35.06;100813.53;5018592;28;20021;-76
2021/07/04 10:35:09;;;;;;;7.50;5.47;;;;;;;27.45;36.44;100831.63;5018681;28;20021;-76
2021/07/04 10:37:37;;;;;;;7.22;5.15;;;;;;;27.49;36.44;100818.31;5031802;28;20083;-76
2021/07/04 10:40:15;;;;;;;8.48;4.65;;;;;;;27.72;35.68;100823.59;5031891;28;20041;-77
2021/07/04 10:42:41;;;;;;;8.65;5.45;;;;;;;27.20;37.05;100811.91;5034318;28;20017;-77
2021/07/04 10:45:30;;;;;;;8.87;5.73;;;;;;;26.96;37.28;100817.75;5026216;28;20067;-77
2021/07/04 10:47:58;;;;;;;11.23;6.03;;;;;;;26.31;37.76;100811.22;4995845;28;20033;-77
2021/07/04 10:50:23;;;;;;;9.13;5.97;;;;;;;26.30;38.19;100810.38;4998341;28;20171;-77
2021/07/04 10:52:50;;;;;;;9.37;5.83;;;;;;;25.97;37.99;100808.00;4998743;28;20100;-76
2021/07/04 10:55:29;;;;;;;7.70;5.70;;;;;;;25.76;40.14;100808.72;4998969;28;20438;-77
2021/07/04 10:57:57;;;;;;;9.70;5.30;;;;;;;25.85;40.94;100806.69;4995928;28;20034;-76
2021/07/04 11:00:33;;;;;;;8.98;5.35;;;;;;;25.89;42.22;100805.31;4979543;28;20504;-76
2021/07/04 11:03:00;;;;;;;8.20;5.60;;;;;;;25.84;43.78;100810.50;5015373;28;20030;-78
2021/07/04 11:05:34;;;;;;;8.60;5.88;;;;;;;25.86;42.09;100805.69;4999079;28;20490;-77
2021/07/04 11:07:59;;;;;;;9.45;5.93;;;;;;;25.70;40.70;100806.69;5015323;28;20057;-75
2021/07/04 11:10:26;;;;;;;10.23;6.43;;;;;;;25.69;41.05;100802.25;5030945;28;20510;-75
2021/07/04 11:13:07;;;;;;;9.70;5.90;;;;;;;25.99;42.54;100805.03;5003717;28;20022;-76
2021/07/04 11:15:33;;;;;;;9.13;5.50;;;;;;;26.27;40.62;100804.38;5025063;28;20485;-77
2021/07/04 11:18:01;;;;;;;7.90;5.60;;;;;;;26.98;38.20;100808.25;5019401;28;20108;-76
2021/07/04 11:20:31;;;;;;;9.73;6.53;;;;;;;27.70;37.20;100809.97;5036547;28;20046;-77